Time;durP1;ratioP1;P1;durP2;ratioP2;P2;SDS_P1;SDS_P2;PMS_P1;PMS_P2;Temp;Humidity;BMP_temperature;BMP_pressure;BME280_temperature;BME280_humidity;BME280_pressure;Samples;Min_cycle;Max_cycle;Signal;HPM_P1;HPM_P2
2022/10/27 00:00:07;;;;;;;4.63;2.10;;;12.50;99.90;;;;;;6190208;23;20172;-86
2022/10/27 00:02:32;;;;;;;4.33;1.70;;;12.50;99.90;;;;;;6190205;23;20190;-87
2022/10/27 00:04:58;;;;;;;4.00;2.10;;;13.20;99.90;;;;;;6190072;23;20690;-89
2022/10/27 00:07:23;;;;;;;4.67;2.00;;;12.60;99.90;;;;;;6190001;23;20620;-87
2022/10/27 00:09:49;;;;;;;2.63;1.53;;;12.50;99.90;;;;;;6190175;23;20156;-86
2022/10/27 00:12:14;;;;;;;3.60;1.50;;;12.40;99.90;;;;;;6190113;23;20167;-86
2022/10/27 00:14:40;;;;;;;7.73;2.00;;;12.40;99.90;;;;;;6189992;23;20188;-86
2022/10/27 00:17:06;;;;;;;8.40;2.50;;;12.30;99.90;;;;;;6216499;23;20233;-87
2022/10/27 00:19:32;;;;;;;3.60;2.20;;;12.30;99.90;;;;;;6189846;23;20542;-86
2022/10/27 00:21:58;;;;;;;3.10;1.60;;;12.20;99.90;;;;;;6189869;23;20194;-88
2022/10/27 00:24:23;;;;;;;6.93;2.10;;;12.80;99.90;;;;;;6189584;23;20196;-87
2022/10/27 00:26:49;;;;;;;9.33;2.13;;;12.10;99.90;;;;;;6190076;23;20179;-87
2022/10/27 00:29:14;;;;;;;8.50;2.37;;;12.20;99.90;;;;;;6189882;23;20175;-88
2022/10/27 00:31:40;;;;;;;7.60;1.93;;;12.10;99.90;;;;;;6189948;23;20249;-88
2022/10/27 00:34:06;;;;;;;6.13;2.30;;;12.00;99.90;;;;;;6190129;23;20184;-88
2022/10/27 00:36:31;;;;;;;5.60;2.60;;;12.00;99.90;;;;;;6191596;23;20617;-89
2022/10/27 00:38:58;;;;;;;3.33;2.10;;;12.10;99.90;;;;;;6190138;23;20167;-87
2022/10/27 00:41:34;;;;;;;3.87;1.80;;;12.00;99.90;;;;;;6189603;23;20238;-88
2022/10/27 00:44:20;;;;;;;4.80;1.90;;;12.00;99.90;;;;;;6189716;23;20183;-88
2022/10/27 00:46:46;;;;;;;4.90;2.13;;;13.10;99.90;;;;;;6189364;23;20160;-86
2022/10/27 00:49:17;;;;;;;3.13;1.70;;;12.20;99.90;;;;;;6190067;23;20156;-87
2022/10/27 00:51:49;;;;;;;3.83;1.77;;;11.90;99.90;;;;;;6189621;23;20157;-87
2022/10/27 00:54:17;;;;;;;8.40;2.10;;;11.80;99.90;;;;;;6189639;23;20211;-85
2022/10/27 00:56:46;;;;;;;4.77;1.67;;;12.00;99.90;;;;;;6189689;23;20167;-86
2022/10/27 00:59:11;;;;;;;8.17;2.13;;;11.80;99.90;;;;;;6189529;23;20622;-85
2022/10/27 01:01:37;;;;;;;6.53;2.03;;;11.70;99.90;;;;;;6190875;23;20180;-87
2022/10/27 01:04:04;;;;;;;5.33;1.97;;;11.70;99.90;;;;;;6191661;23;20202;-85
2022/10/27 01:06:29;;;;;;;4.40;2.00;;;11.70;99.90;;;;;;6191515;23;20616;-86
2022/10/27 01:08:57;;;;;;;7.57;2.27;;;11.40;99.90;;;;;;6191662;23;20243;-85
2022/10/27 01:11:22;;;;;;;5.47;2.13;;;12.30;99.90;;;;;;6191990;23;20160;-86
2022/10/27 01:13:48;;;;;;;5.00;1.93;;;11.60;99.90;;;;;;6191345;23;20206;-85
2022/10/27 01:16:23;;;;;;;4.17;2.00;;;11.60;99.90;;;;;;6191720;23;20203;-86
2022/10/27 01:19:00;;;;;;;3.53;2.10;;;11.70;99.90;;;;;;6191663;23;20475;-84
2022/10/27 01:21:47;;;;;;;6.47;2.33;;;11.60;99.90;;;;;;6191509;23;20175;-87
2022/10/27 01:24:40;;;;;;;5.77;2.30;;;11.50;99.90;;;;;;6191352;23;20191;-86
2022/10/27 01:27:48;;;;;;;5.10;2.10;;;11.50;99.90;;;;;;6191475;23;20148;-85
2022/10/27 01:30:22;;;;;;;5.30;1.97;;;11.40;99.90;;;;;;6191322;23;20214;-85
2022/10/27 01:33:14;;;;;;;4.27;2.07;;;11.40;99.90;;;;;;6191382;23;20602;-82
2022/10/27 01:35:49;;;;;;;7.63;1.73;;;11.40;99.90;;;;;;6191365;23;20148;-85
2022/10/27 01:38:30;;;;;;;3.20;2.17;;;11.40;99.90;;;;;;6191256;23;20148;-87
2022/10/27 01:41:06;;;;;;;3.13;2.00;;;11.40;99.90;;;;;;6191185;23;20237;-87
2022/10/27 01:43:33;;;;;;;3.53;2.23;;;11.30;99.90;;;;;;6191099;23;20176;-86
2022/10/27 01:46:02;;;;;;;5.60;2.30;;;11.40;99.90;;;;;;6217793;23;20153;-87
2022/10/27 01:48:31;;;;;;;5.63;1.93;;;11.50;99.90;;;;;;6191188;23;20156;-85
2022/10/27 01:50:56;;;;;;;6.30;2.07;;;11.30;99.90;;;;;;6191060;23;20613;-85
2022/10/27 01:53:22;;;;;;;2.17;1.80;;;11.30;99.90;;;;;;6191230;23;20263;-87
2022/10/27 01:56:03;;;;;;;3.67;1.90;;;11.20;99.90;;;;;;6191027;23;20163;-87
2022/10/27 01:59:06;;;;;;;4.77;1.90;;;11.20;99.90;;;;;;6191110;23;20164;-87
2022/10/27 02:01:44;;;;;;;4.57;1.80;;;11.10;99.90;;;;;;6191124;23;20230;-85
2022/10/27 02:04:32;;;;;;;3.77;1.80;;;11.10;99.90;;;;;;6190874;23;20258;-85
2022/10/27 02:07:15;;;;;;;2.17;1.50;;;11.10;99.90;;;;;;6191143;23;20161;-85
2022/10/27 02:09:53;;;;;;;4.43;1.70;;;11.10;99.90;;;;;;6191008;23;20152;-86
2022/10/27 02:12:35;;;;;;;5.93;1.90;;;11.10;99.90;;;;;;6190979;23;20226;-87
2022/10/27 02:15:04;;;;;;;5.90;1.63;;;11.00;99.90;;;;;;6191038;23;20195;-87
2022/10/27 02:17:39;;;;;;;6.23;1.93;;;11.00;99.90;;;;;;6190958;23;20164;-86
2022/10/27 02:20:11;;;;;;;4.10;1.90;;;11.00;99.90;;;;;;6217557;23;20163;-87
2022/10/27 02:22:38;;;;;;;5.23;2.17;;;11.00;99.90;;;;;;6190893;23;20180;-88
2022/10/27 02:25:04;;;;;;;3.47;1.80;;;11.00;99.90;;;;;;6190742;23;20203;-86
2022/10/27 02:27:35;;;;;;;4.50;1.90;;;11.00;99.90;;;;;;6190744;23;20484;-89
2022/10/27 02:30:02;;;;;;;4.17;2.00;;;11.00;99.90;;;;;;6190783;23;20168;-88
2022/10/27 02:32:29;;;;;;;5.10;2.30;;;11.00;99.90;;;;;;6191434;23;20163;-89
2022/10/27 02:34:56;;;;;;;3.73;2.47;;;11.00;99.90;;;;;;6190770;23;20642;-88
2022/10/27 02:37:31;;;;;;;7.13;1.60;;;11.00;99.90;;;;;;6191082;23;20349;-85
2022/10/27 02:39:56;;;;;;;9.83;1.70;;;11.00;99.90;;;;;;6191029;23;20575;-88
2022/10/27 02:42:22;;;;;;;3.80;1.97;;;11.00;99.90;;;;;;6190775;23;20245;-83
2022/10/27 02:44:47;;;;;;;2.27;1.50;;;10.90;99.90;;;;;;6190750;23;20263;-86
2022/10/27 02:47:13;;;;;;;2.80;1.87;;;10.90;99.90;;;;;;6190743;23;20152;-86
2022/10/27 02:49:38;;;;;;;8.73;1.90;;;10.90;99.90;;;;;;6217402;23;20466;-86
2022/10/27 02:52:04;;;;;;;2.93;1.67;;;10.90;99.90;;;;;;6190917;23;20539;-87
2022/10/27 02:54:30;;;;;;;4.33;1.90;;;10.90;99.90;;;;;;6217480;23;20230;-87
2022/10/27 02:56:57;;;;;;;6.23;1.93;;;10.90;99.90;;;;;;6192817;23;20585;-89
2022/10/27 02:59:23;;;;;;;7.23;2.03;;;10.90;99.90;;;;;;6190723;23;20199;-88
2022/10/27 03:01:48;;;;;;;9.13;2.40;;;10.90;99.90;;;;;;6190465;23;20184;-86
2022/10/27 03:04:14;;;;;;;5.73;1.70;;;10.90;99.90;;;;;;6190741;23;20262;-87
2022/10/27 03:06:39;;;;;;;4.10;1.77;;;10.90;99.90;;;;;;6190423;23;20164;-87
2022/10/27 03:09:05;;;;;;;6.23;1.83;;;11.00;99.90;;;;;;6190574;23;20622;-87
2022/10/27 03:11:30;;;;;;;3.67;1.80;;;11.10;99.90;;;;;;6190620;23;20164;-86
2022/10/27 03:13:56;;;;;;;7.20;1.90;;;11.00;99.90;;;;;;6190254;23;20183;-86
2022/10/27 03:16:22;;;;;;;4.70;1.90;;;11.00;99.90;;;;;;6190408;23;20551;-87
2022/10/27 03:18:47;;;;;;;3.63;2.00;;;11.00;99.90;;;;;;6190156;23;20494;-86
2022/10/27 03:21:13;;;;;;;7.40;2.03;;;11.00;99.90;;;;;;6216985;23;20184;-87
2022/10/27 03:23:39;;;;;;;3.80;2.13;;;11.00;99.90;;;;;;6189813;23;20192;-86
2022/10/27 03:26:05;;;;;;;7.00;2.00;;;11.00;99.90;;;;;;6190265;23;20179;-86
2022/10/27 03:28:34;;;;;;;5.20;1.97;;;11.10;99.90;;;;;;6190315;23;20159;-85
2022/10/27 03:31:00;;;;;;;2.47;1.80;;;11.10;99.90;;;;;;6216776;23;20152;-85
2022/10/27 03:33:25;;;;;;;4.57;2.40;;;11.10;99.90;;;;;;6190144;23;20183;-85
2022/10/27 03:35:51;;;;;;;5.83;2.13;;;11.00;99.90;;;;;;6190187;23;20167;-86
2022/10/27 03:38:16;;;;;;;3.80;2.07;;;11.10;99.90;;;;;;6190066;23;20210;-85
2022/10/27 03:40:42;;;;;;;4.90;1.97;;;11.00;99.90;;;;;;6190154;23;20167;-86
2022/10/27 03:43:09;;;;;;;6.93;2.07;;;11.00;99.90;;;;;;6190137;23;20187;-86
2022/10/27 03:45:34;;;;;;;11.67;2.07;;;10.90;99.90;;;;;;6190262;23;20682;-86
2022/10/27 03:48:02;;;;;;;3.87;2.40;;;10.90;99.90;;;;;;6190358;23;20187;-87
2022/10/27 03:50:28;;;;;;;3.53;2.00;;;10.90;99.90;;;;;;6189992;23;20161;-85
2022/10/27 03:52:54;;;;;;;2.93;2.20;;;10.90;99.90;;;;;;6190129;23;20168;-85
2022/10/27 03:55:19;;;;;;;6.73;2.00;;;10.90;99.90;;;;;;6190143;23;20685;-85
2022/10/27 03:57:45;;;;;;;6.20;2.10;;;10.90;99.90;;;;;;6217295;23;20160;-86
2022/10/27 04:00:11;;;;;;;3.80;1.70;;;11.00;99.90;;;;;;6190283;23;20233;-85
2022/10/27 04:02:37;;;;;;;3.30;1.93;;;11.00;99.90;;;;;;6189962;23;20191;-85
2022/10/27 04:05:02;;;;;;;5.33;1.93;;;11.10;99.90;;;;;;6189949;23;20175;-87
2022/10/27 04:07:28;;;;;;;3.50;2.13;;;11.10;99.90;;;;;;6189985;23;20434;-85
2022/10/27 04:09:53;;;;;;;7.23;2.40;;;11.20;99.90;;;;;;6189949;23;20179;-87
2022/10/27 04:12:19;;;;;;;6.50;2.50;;;11.20;99.90;;;;;;6189758;23;20587;-86
2022/10/27 04:14:44;;;;;;;8.47;2.00;;;11.20;99.90;;;;;;6189778;23;20206;-87
2022/10/27 04:17:10;;;;;;;6.97;1.83;;;11.10;99.90;;;;;;6190889;23;20167;-86
2022/10/27 04:19:35;;;;;;;6.43;2.20;;;11.20;99.90;;;;;;6190286;23;20156;-86
2022/10/27 04:22:01;;;;;;;6.37;2.07;;;11.20;99.90;;;;;;6189609;23;20191;-87
2022/10/27 04:24:26;;;;;;;5.37;2.10;;;11.10;99.90;;;;;;6189606;23;20190;-85
2022/10/27 04:26:52;;;;;;;6.57;2.20;;;11.20;99.90;;;;;;6216225;23;20147;-84
2022/10/27 04:29:17;;;;;;;9.43;2.03;;;11.10;99.90;;;;;;6189854;23;20166;-86
2022/10/27 04:31:43;;;;;;;4.87;1.90;;;11.20;99.90;;;;;;6189760;23;20164;-86
2022/10/27 04:34:08;;;;;;;12.30;2.83;;;11.20;99.90;;;;;;6189618;23;20185;-87
2022/10/27 04:36:34;;;;;;;6.00;1.97;;;11.20;99.90;;;;;;6189234;23;20165;-87
2022/10/27 04:38:59;;;;;;;11.00;2.10;;;11.10;99.90;;;;;;6189726;23;20164;-89
2022/10/27 04:41:25;;;;;;;5.73;2.00;;;11.20;99.90;;;;;;6189647;23;20657;-87
2022/10/27 04:43:51;;;;;;;3.17;2.03;;;11.20;99.90;;;;;;6189703;23;20648;-87
2022/10/27 04:46:17;;;;;;;9.57;2.20;;;11.20;99.90;;;;;;6190231;23;20224;-87
2022/10/27 04:48:42;;;;;;;2.90;1.97;;;11.30;99.90;;;;;;6190433;23;20525;-87
2022/10/27 04:51:08;;;;;;;5.17;2.20;;;11.20;99.90;;;;;;6190019;23;20550;-89
2022/10/27 04:53:33;;;;;;;5.33;2.00;;;11.30;99.90;;;;;;6189685;23;20187;-86
2022/10/27 04:55:59;;;;;;;7.97;2.07;;;11.30;99.90;;;;;;6189642;23;20172;-88
2022/10/27 04:58:25;;;;;;;4.40;2.07;;;11.40;99.90;;;;;;6189797;23;20243;-87
2022/10/27 05:00:50;;;;;;;5.40;1.83;;;12.10;99.90;;;;;;6189516;23;20184;-87
2022/10/27 05:03:16;;;;;;;5.17;2.23;;;11.40;99.90;;;;;;6189627;23;20635;-87
2022/10/27 05:05:41;;;;;;;5.53;2.13;;;11.50;99.90;;;;;;6189562;23;20242;-87
2022/10/27 05:08:08;;;;;;;3.20;1.90;;;11.50;99.90;;;;;;6189707;23;20163;-87
2022/10/27 05:10:34;;;;;;;7.60;2.17;;;11.60;99.90;;;;;;6189658;23;20184;-87
2022/10/27 05:13:00;;;;;;;4.97;2.03;;;11.90;99.90;;;;;;6189717;23;20168;-88
2022/10/27 05:15:26;;;;;;;4.43;1.47;;;11.60;99.90;;;;;;6190287;23;20152;-87
2022/10/27 05:17:52;;;;;;;5.43;2.10;;;11.60;99.90;;;;;;6216156;23;20468;-87
2022/10/27 05:20:17;;;;;;;3.80;1.67;;;11.70;99.90;;;;;;6189550;23;20162;-84
2022/10/27 05:22:43;;;;;;;5.40;1.77;;;11.70;99.90;;;;;;6190372;23;20203;-85
2022/10/27 05:25:09;;;;;;;5.77;1.77;;;11.70;99.90;;;;;;6189680;23;20171;-87
2022/10/27 05:27:36;;;;;;;3.83;1.80;;;12.10;99.90;;;;;;6190272;23;20633;-87
2022/10/27 05:30:02;;;;;;;5.03;1.87;;;11.80;99.90;;;;;;6190580;23;20160;-87
2022/10/27 05:32:28;;;;;;;4.53;1.77;;;11.80;99.90;;;;;;6189940;23;20673;-86
2022/10/27 05:34:54;;;;;;;4.80;1.80;;;11.80;99.90;;;;;;6189616;23;20187;-87
2022/10/27 05:37:19;;;;;;;5.03;1.43;;;11.80;99.90;;;;;;6190110;23;20160;-88
2022/10/27 05:39:45;;;;;;;4.43;1.70;;;11.80;99.90;;;;;;6217710;23;20170;-87
2022/10/27 05:42:10;;;;;;;5.53;2.07;;;11.80;99.90;;;;;;6189156;23;20184;-86
2022/10/27 05:44:36;;;;;;;8.53;2.00;;;11.80;99.90;;;;;;6189318;23;20627;-87
2022/10/27 05:47:01;;;;;;;4.80;1.50;;;12.80;99.90;;;;;;6189727;23;20464;-87
2022/10/27 05:49:27;;;;;;;6.40;2.00;;;12.20;99.90;;;;;;6191094;23;20182;-87
2022/10/27 05:51:52;;;;;;;3.00;2.10;;;11.90;99.90;;;;;;6217675;23;20210;-87
2022/10/27 05:54:18;;;;;;;4.23;2.40;;;11.80;99.90;;;;;;6191129;23;20180;-88
2022/10/27 05:56:44;;;;;;;4.90;1.90;;;11.80;99.90;;;;;;6191217;23;20167;-87
2022/10/27 05:59:11;;;;;;;4.33;1.53;;;11.80;99.90;;;;;;6191240;23;20514;-86
2022/10/27 06:01:37;;;;;;;4.10;1.80;;;11.80;99.90;;;;;;6191346;23;20619;-87
2022/10/27 06:04:02;;;;;;;3.30;1.63;;;11.80;99.90;;;;;;6190857;23;20184;-87
2022/10/27 06:06:28;;;;;;;4.00;1.90;;;11.80;99.90;;;;;;6191142;23;20170;-87
2022/10/27 06:08:53;;;;;;;3.70;2.00;;;11.80;99.90;;;;;;6190987;23;20649;-86
2022/10/27 06:11:19;;;;;;;5.90;1.90;;;11.80;99.90;;;;;;6191190;23;20159;-87
2022/10/27 06:13:49;;;;;;;13.33;2.07;;;11.80;99.90;;;;;;6191014;23;20262;-87
2022/10/27 06:16:14;;;;;;;5.77;2.00;;;11.90;99.90;;;;;;6191027;23;20190;-87
2022/10/27 06:18:40;;;;;;;4.17;2.00;;;11.90;99.90;;;;;;6190951;23;20159;-86
2022/10/27 06:21:05;;;;;;;5.63;2.10;;;11.90;99.90;;;;;;6190937;23;20656;-86
2022/10/27 06:23:31;;;;;;;10.17;2.07;;;12.50;99.90;;;;;;6190794;23;20201;-86
2022/10/27 06:25:56;;;;;;;8.57;2.00;;;11.90;99.90;;;;;;6190908;23;20149;-87
2022/10/27 06:28:22;;;;;;;3.70;1.90;;;11.90;99.90;;;;;;6190888;23;20164;-89
2022/10/27 06:30:48;;;;;;;6.00;1.67;;;11.90;99.90;;;;;;6193887;23;20161;-88
2022/10/27 06:33:13;;;;;;;5.97;2.07;;;11.90;99.90;;;;;;6190948;23;20190;-88
2022/10/27 06:35:39;;;;;;;5.70;1.70;;;11.90;99.90;;;;;;6191073;23;20163;-88
2022/10/27 06:38:04;;;;;;;3.90;1.67;;;11.90;99.90;;;;;;6191214;23;20159;-88
2022/10/27 06:40:30;;;;;;;4.83;1.67;;;12.10;99.90;;;;;;6191597;23;20156;-89
2022/10/27 06:42:55;;;;;;;7.33;1.70;;;11.90;99.90;;;;;;6191302;23;20575;-88
2022/10/27 06:45:21;;;;;;;7.50;2.07;;;11.90;99.90;;;;;;6191673;23;20508;-87
2022/10/27 06:47:58;;;;;;;3.33;1.97;;;12.00;99.90;;;;;;6190976;23;20160;-88
2022/10/27 06:50:24;;;;;;;2.73;1.87;;;11.90;99.90;;;;;;6191082;23;20632;-88
2022/10/27 06:52:50;;;;;;;4.83;1.70;;;11.90;99.90;;;;;;6190916;23;20174;-87
2022/10/27 06:55:16;;;;;;;3.97;2.07;;;12.00;99.90;;;;;;6191074;23;20168;-87
2022/10/27 06:57:42;;;;;;;2.47;1.60;;;12.00;99.90;;;;;;6190819;23;20541;-87
2022/10/27 07:00:09;;;;;;;5.50;1.90;;;11.90;99.90;;;;;;6190565;23;20160;-88
2022/10/27 07:02:35;;;;;;;5.03;2.30;;;12.00;99.90;;;;;;6190789;23;20187;-89
2022/10/27 07:05:01;;;;;;;4.50;2.00;;;12.20;99.90;;;;;;6190723;23;20186;-89
2022/10/27 07:07:26;;;;;;;2.80;1.90;;;12.10;99.90;;;;;;6190904;23;20159;-88
2022/10/27 07:09:52;;;;;;;3.83;1.40;;;12.10;99.90;;;;;;6190751;23;20206;-87
2022/10/27 07:12:17;;;;;;;4.10;1.93;;;12.20;99.90;;;;;;6190647;23;20606;-89
2022/10/27 07:14:43;;;;;;;5.17;1.80;;;12.10;99.90;;;;;;6190469;23;20180;-87
2022/10/27 07:17:08;;;;;;;5.37;1.80;;;12.20;99.90;;;;;;6190727;23;20168;-89
2022/10/27 07:19:34;;;;;;;4.80;2.00;;;12.30;99.90;;;;;;6190817;23;20164;-85
2022/10/27 07:21:59;;;;;;;3.63;1.87;;;12.30;99.90;;;;;;6191395;23;20195;-89
2022/10/27 07:24:25;;;;;;;7.43;1.93;;;12.40;99.90;;;;;;6190596;23;20211;-88
2022/10/27 07:26:51;;;;;;;3.23;2.20;;;12.60;99.90;;;;;;6190299;23;20214;-88
2022/10/27 07:29:16;;;;;;;5.37;2.40;;;12.60;99.90;;;;;;6190708;23;20246;-88
2022/10/27 07:31:46;;;;;;;10.40;2.13;;;12.60;99.90;;;;;;6190473;23;20168;-87
2022/10/27 07:34:12;;;;;;;4.37;2.07;;;12.70;99.90;;;;;;6190454;23;20180;-87
2022/10/27 07:36:37;;;;;;;7.40;2.30;;;12.70;99.90;;;;;;6191797;23;20175;-89
2022/10/27 07:39:03;;;;;;;7.70;2.60;;;12.80;99.90;;;;;;6190877;23;20171;-87
2022/10/27 07:41:29;;;;;;;4.97;1.83;;;13.30;99.90;;;;;;6216724;23;20187;-88
2022/10/27 07:43:55;;;;;;;6.47;2.00;;;12.90;99.90;;;;;;6190117;23;20181;-89
2022/10/27 07:46:20;;;;;;;6.97;2.23;;;13.00;99.90;;;;;;6189980;23;20160;-88
2022/10/27 07:48:46;;;;;;;5.27;2.10;;;13.10;99.90;;;;;;6190231;23;20152;-87
2022/10/27 07:51:11;;;;;;;7.27;2.50;;;13.00;99.90;;;;;;6190062;23;20210;-87
2022/10/27 07:53:37;;;;;;;10.87;2.70;;;13.10;99.90;;;;;;6189911;23;20522;-89
2022/10/27 07:56:03;;;;;;;3.10;2.03;;;13.20;99.90;;;;;;6189982;23;20573;-88
2022/10/27 07:58:28;;;;;;;6.47;2.33;;;13.20;99.90;;;;;;6190131;23;20168;-85
2022/10/27 08:00:55;;;;;;;8.83;2.47;;;13.30;99.90;;;;;;6190048;23;20656;-87
2022/10/27 08:03:29;;;;;;;9.57;2.17;;;13.30;99.90;;;;;;6189796;23;20275;-88
2022/10/27 08:05:57;;;;;;;6.00;2.50;;;13.50;99.90;;;;;;6190382;23;20202;-87
2022/10/27 08:08:22;;;;;;;8.07;2.00;;;13.50;99.90;;;;;;6191167;23;20260;-89
2022/10/27 08:10:52;;;;;;;6.03;2.20;;;13.50;99.90;;;;;;6192530;23;20156;-86
2022/10/27 08:13:17;;;;;;;6.87;2.50;;;13.60;99.90;;;;;;6190891;23;20271;-88
2022/10/27 08:15:43;;;;;;;4.93;2.13;;;13.70;99.90;;;;;;6190745;23;20156;-87
2022/10/27 08:18:09;;;;;;;4.50;2.00;;;13.80;99.90;;;;;;6189867;23;20160;-90
2022/10/27 08:20:44;;;;;;;5.90;2.10;;;13.90;99.90;;;;;;6189668;23;20287;-86
2022/10/27 08:23:15;;;;;;;4.70;2.10;;;14.00;99.90;;;;;;6189408;23;20190;-89
2022/10/27 08:25:41;;;;;;;5.83;1.87;;;14.00;99.90;;;;;;6189927;23;20187;-88
2022/10/27 08:28:09;;;;;;;5.67;1.90;;;14.00;99.90;;;;;;6189839;23;20234;-89
2022/10/27 08:30:35;;;;;;;6.73;1.83;;;14.20;99.90;;;;;;6189782;23;20163;-86
2022/10/27 08:33:03;;;;;;;5.00;1.43;;;14.60;99.90;;;;;;6190064;23;20184;-88
2022/10/27 08:35:31;;;;;;;4.00;1.47;;;14.30;99.90;;;;;;6189774;23;20218;-88
2022/10/27 08:38:03;;;;;;;8.13;1.60;;;14.40;99.90;;;;;;6190905;23;20214;-89
2022/10/27 08:40:44;;;;;;;5.13;1.53;;;14.60;99.90;;;;;;6217927;23;20186;-87
2022/10/27 08:43:41;;;;;;;3.63;1.30;;;14.70;99.90;;;;;;6189565;23;20190;-85
2022/10/27 08:46:44;;;;;;;3.60;1.53;;;14.70;99.90;;;;;;6190105;23;20152;-86
2022/10/27 08:49:36;;;;;;;2.90;1.60;;;14.80;99.90;;;;;;6042976;23;20184;-88
2022/10/27 08:52:28;;;;;;;2.53;1.13;;;14.90;99.90;;;;;;6188213;23;20196;-87
2022/10/27 08:54:59;;;;;;;4.10;1.67;;;15.00;99.90;;;;;;6190085;23;20186;-87
2022/10/27 08:57:28;;;;;;;2.33;1.20;;;15.00;99.90;;;;;;6190112;23;20492;-88
2022/10/27 08:59:55;;;;;;;2.97;1.13;;;15.10;99.90;;;;;;6190213;23;20161;-88
2022/10/27 09:02:45;;;;;;;5.47;1.67;;;15.10;99.90;;;;;;6189879;23;20670;-88
2022/10/27 09:05:17;;;;;;;3.30;1.30;;;15.10;99.90;;;;;;6189830;23;20160;-87
2022/10/27 09:08:20;;;;;;;5.37;1.00;;;15.10;99.90;;;;;;6190042;23;20162;-90
2022/10/27 09:11:07;;;;;;;8.70;1.30;;;15.20;99.90;;;;;;6190177;23;20496;-86
2022/10/27 09:13:56;;;;;;;2.23;1.50;;;15.30;99.90;;;;;;6189703;23;20232;-88
2022/10/27 09:16:33;;;;;;;4.37;1.30;;;15.40;99.90;;;;;;6189763;23;20152;-86
2022/10/27 09:19:01;;;;;;;3.53;1.40;;;15.40;99.90;;;;;;6189854;23;20180;-87
2022/10/27 09:21:29;;;;;;;2.47;1.20;;;15.70;99.90;;;;;;6189910;23;20192;-87
2022/10/27 09:24:00;;;;;;;4.23;1.30;;;15.60;99.90;;;;;;6191325;23;20188;-87
2022/10/27 09:26:30;;;;;;;5.70;1.60;;;15.80;99.90;;;;;;6191667;23;20490;-87
2022/10/27 09:28:59;;;;;;;5.97;1.33;;;15.70;99.90;;;;;;6191629;23;20544;-86
2022/10/27 09:31:36;;;;;;;8.67;1.30;;;16.50;99.90;;;;;;6191425;23;20247;-87
2022/10/27 09:34:28;;;;;;;5.00;1.60;;;16.00;99.90;;;;;;6191269;23;20180;-85
2022/10/27 09:36:54;;;;;;;2.13;1.20;;;16.20;99.90;;;;;;6191390;23;20230;-89
2022/10/27 09:39:21;;;;;;;6.00;1.50;;;16.20;99.90;;;;;;6191402;23;20171;-87
2022/10/27 09:41:47;;;;;;;4.20;1.60;;;16.40;99.90;;;;;;6191218;23;20190;-87
2022/10/27 09:44:21;;;;;;;3.20;1.77;;;16.50;99.90;;;;;;6191737;23;20613;-87
2022/10/27 09:46:53;;;;;;;2.50;1.23;;;16.60;99.90;;;;;;6191324;23;20156;-89
2022/10/27 09:49:21;;;;;;;2.80;0.97;;;16.70;99.90;;;;;;6191478;23;20156;-86
2022/10/27 09:51:49;;;;;;;4.73;1.00;;;16.90;99.90;;;;;;6192750;23;20210;-89
2022/10/27 09:54:32;;;;;;;9.90;1.17;;;16.90;99.90;;;;;;6217684;23;20623;-87
2022/10/27 09:57:10;;;;;;;3.93;1.20;;;17.00;99.90;;;;;;6191103;23;20550;-83
2022/10/27 09:59:37;;;;;;;5.90;1.17;;;17.10;99.90;;;;;;6191339;23;20160;-87
2022/10/27 10:02:25;;;;;;;2.03;0.93;;;17.20;99.90;;;;;;6192434;23;20191;-88
2022/10/27 10:04:51;;;;;;;6.87;1.30;;;17.30;99.90;;;;;;6191238;23;20180;-87
2022/10/27 10:07:37;;;;;;;2.60;1.07;;;17.30;99.90;;;;;;6191443;23;20542;-86
2022/10/27 10:10:19;;;;;;;2.20;1.10;;;17.50;99.90;;;;;;6191573;23;20149;-87
2022/10/27 10:12:45;;;;;;;3.77;1.33;;;17.60;99.90;;;;;;6191892;23;20156;-88
2022/10/27 10:15:10;;;;;;;6.13;1.23;;;17.70;99.90;;;;;;6203003;23;20168;-88
2022/10/27 10:17:38;;;;;;;5.60;1.20;;;17.70;99.90;;;;;;6193712;23;20211;-87
2022/10/27 10:20:06;;;;;;;3.03;1.40;;;17.80;99.90;;;;;;6191090;23;20160;-88
2022/10/27 10:22:34;;;;;;;3.13;1.00;;;17.90;99.90;;;;;;6190865;23;20188;-86
2022/10/27 10:25:18;;;;;;;5.77;1.90;;;18.00;99.90;;;;;;6190819;23;20203;-86
2022/10/27 10:27:54;;;;;;;6.73;1.37;;;18.10;99.90;;;;;;6191014;23;20159;-87
2022/10/27 10:30:20;;;;;;;2.50;0.90;;;18.20;99.90;;;;;;6190828;23;20571;-87
2022/10/27 10:32:54;;;;;;;6.47;1.30;;;18.30;99.90;;;;;;6190256;23;20168;-84
2022/10/27 10:35:49;;;;;;;4.73;1.30;;;18.40;99.90;;;;;;6190518;23;20195;-86
2022/10/27 10:38:29;;;;;;;3.83;1.10;;;18.50;99.90;;;;;;6190522;23;20153;-86
2022/10/27 10:41:15;;;;;;;3.87;1.40;;;18.60;99.90;;;;;;6190521;23;20160;-85
2022/10/27 10:43:42;;;;;;;3.83;1.33;;;18.70;99.90;;;;;;6190603;23;20271;-88
2022/10/27 10:46:23;;;;;;;5.20;1.30;;;18.70;99.90;;;;;;6190472;23;20521;-85
2022/10/27 10:48:57;;;;;;;3.20;0.90;;;18.90;99.90;;;;;;6190633;23;20156;-85
2022/10/27 10:51:31;;;;;;;1.40;0.97;;;19.00;99.90;;;;;;6190799;23;20152;-86
2022/10/27 10:54:18;;;;;;;2.40;1.00;;;19.10;99.90;;;;;;6190485;23;20622;-87
2022/10/27 10:56:52;;;;;;;5.00;1.03;;;19.10;99.90;;;;;;6190771;23;20164;-87
2022/10/27 10:59:22;;;;;;;6.63;1.40;;;19.30;99.90;;;;;;6190643;23;20579;-87
2022/10/27 11:01:52;;;;;;;7.47;1.50;;;19.40;99.90;;;;;;6190850;23;20279;-87
2022/10/27 11:04:21;;;;;;;7.23;1.20;;;19.50;99.90;;;;;;6190453;23;20225;-85
2022/10/27 11:06:58;;;;;;;6.47;1.47;;;19.60;99.90;;;;;;6190401;23;20164;-86
2022/10/27 11:09:32;;;;;;;6.87;1.10;;;19.70;99.90;;;;;;6190658;23;20148;-86
2022/10/27 11:11:59;;;;;;;5.17;1.40;;;19.80;99.90;;;;;;6190368;23;20156;-86
2022/10/27 11:14:27;;;;;;;3.60;1.03;;;19.90;99.90;;;;;;6190323;23;20187;-87
2022/10/27 11:16:57;;;;;;;3.67;1.23;;;20.00;99.90;;;;;;6190319;23;20247;-84
2022/10/27 11:19:26;;;;;;;3.90;1.10;;;20.10;99.90;;;;;;6190671;23;20148;-86
2022/10/27 11:22:03;;;;;;;2.47;1.20;;;20.10;99.90;;;;;;6190660;23;20176;-86
2022/10/27 11:24:35;;;;;;;4.63;1.00;;;20.30;99.90;;;;;;6190127;23;20191;-86
2022/10/27 11:27:20;;;;;;;7.93;1.57;;;20.30;99.90;;;;;;6190506;23;20207;-88
2022/10/27 11:30:12;;;;;;;6.50;1.47;;;20.40;99.90;;;;;;6189477;23;20160;-88
2022/10/27 11:32:59;;;;;;;4.80;1.20;;;20.50;99.90;;;;;;6190264;23;20152;-87
2022/10/27 11:35:34;;;;;;;3.87;1.33;;;20.50;99.90;;;;;;6190161;23;20156;-86
2022/10/27 11:38:19;;;;;;;2.90;1.13;;;20.60;99.90;;;;;;6190399;23;20235;-86
2022/10/27 11:40:55;;;;;;;3.17;1.10;;;20.70;99.90;;;;;;6190330;23;20202;-85
2022/10/27 11:43:43;;;;;;;10.83;1.40;;;20.80;99.90;;;;;;6190171;23;20226;-85
2022/10/27 11:46:40;;;;;;;7.33;1.67;;;20.90;99.90;;;;;;6189827;23;20160;-87
2022/10/27 11:49:09;;;;;;;3.50;1.10;;;20.90;99.90;;;;;;6139775;23;20160;-88
2022/10/27 11:51:38;;;;;;;3.30;1.60;;;21.00;99.90;;;;;;6190040;23;20214;-87
2022/10/27 11:54:04;;;;;;;5.03;1.23;;;21.00;99.90;;;;;;6189946;23;20176;-86
2022/10/27 11:56:50;;;;;;;5.33;1.20;;;21.10;99.90;;;;;;6190096;23;20160;-87
2022/10/27 11:59:16;;;;;;;3.37;1.03;;;21.20;99.90;;;;;;6190147;23;20163;-85
2022/10/27 12:02:18;;;;;;;2.67;1.37;;;21.30;99.90;;;;;;6216367;23;20208;-88
2022/10/27 12:04:59;;;;;;;6.40;1.33;;;21.30;99.90;;;;;;6189707;23;20514;-85
2022/10/27 12:07:52;;;;;;;2.63;1.00;;;21.40;99.90;;;;;;6189925;23;20152;-84
2022/10/27 12:10:35;;;;;;;5.67;1.50;;;21.50;99.90;;;;;;6189906;23;20506;-86
2022/10/27 12:13:12;;;;;;;4.77;1.10;;;21.50;99.90;;;;;;6189915;23;20152;-87
2022/10/27 12:15:48;;;;;;;5.80;1.20;;;21.60;99.90;;;;;;6189946;23;20593;-86
2022/10/27 12:18:32;;;;;;;2.57;1.30;;;21.70;99.90;;;;;;6189878;23;20179;-85
2022/10/27 12:21:10;;;;;;;2.90;1.47;;;21.80;99.90;;;;;;6189752;23;20152;-86
2022/10/27 12:23:46;;;;;;;4.20;1.30;;;21.90;99.90;;;;;;6189452;23;20637;-86
2022/10/27 12:26:30;;;;;;;4.07;1.17;;;22.00;99.90;;;;;;6189800;23;20152;-87
2022/10/27 12:28:57;;;;;;;7.80;1.00;;;22.00;99.90;;;;;;6189901;23;20554;-87
2022/10/27 12:31:27;;;;;;;6.57;1.20;;;22.10;99.90;;;;;;6189615;23;20211;-87
2022/10/27 12:33:56;;;;;;;4.40;1.27;;;22.10;99.90;;;;;;6189459;23;20235;-87
2022/10/27 12:36:47;;;;;;;4.23;1.47;;;22.10;99.90;;;;;;6189373;23;20500;-88
2022/10/27 12:39:24;;;;;;;8.80;1.40;;;22.20;99.90;;;;;;6216792;23;20151;-86
2022/10/27 12:42:14;;;;;;;5.97;1.77;;;22.30;99.90;;;;;;6189642;23;20183;-84
2022/10/27 12:44:55;;;;;;;6.63;1.47;;;22.30;99.90;;;;;;6189506;23;20233;-85
2022/10/27 12:47:40;;;;;;;4.30;1.40;;;22.30;99.90;;;;;;6189717;23;20152;-87
2022/10/27 12:50:37;;;;;;;6.37;1.50;;;22.30;99.90;;;;;;6189644;23;20159;-84
2022/10/27 12:53:37;;;;;;;4.17;1.50;;;22.40;99.90;;;;;;6189591;23;20194;-86
2022/10/27 12:56:25;;;;;;;5.03;1.33;;;22.40;99.90;;;;;;6189436;23;20621;-86
2022/10/27 12:59:13;;;;;;;3.07;1.13;;;22.30;99.90;;;;;;6190059;23;20494;-87
2022/10/27 13:01:55;;;;;;;2.43;1.20;;;22.30;99.90;;;;;;6189503;23;20184;-85
2022/10/27 13:04:39;;;;;;;8.67;1.67;;;22.40;99.90;;;;;;6216054;23;20172;-85